Time;durP1;ratioP1;P1;durP2;ratioP2;P2;SDS_P1;SDS_P2;PMS_P1;PMS_P2;Temp;Humidity;BMP_temperature;BMP_pressure;BME280_temperature;BME280_humidity;BME280_pressure;Samples;Min_cycle;Max_cycle;Signal;HPM_P1;HPM_P2
2022/03/23 00:01:12;;;;;;;32.28;16.65;;;;;;;6.17;60.86;102921.66;5046478;28;20055;-87
2022/03/23 00:03:37;;;;;;;30.25;16.73;;;;;;;6.13;60.67;102916.38;5048895;28;20488;-87
2022/03/23 00:06:04;;;;;;;30.70;16.63;;;;;;;6.14;60.89;102913.84;5052441;28;20266;-87
2022/03/23 00:08:29;;;;;;;33.28;17.75;;;;;;;6.10;61.92;102919.78;5054921;28;20066;-87
2022/03/23 00:10:55;;;;;;;33.10;16.23;;;;;;;6.05;61.54;102917.06;5058639;28;20024;-86
2022/03/23 00:13:20;;;;;;;28.83;16.23;;;;;;;5.98;60.93;102916.84;5050453;28;20040;-87
2022/03/23 00:15:47;;;;;;;31.17;16.02;;;;;;;5.91;61.37;102915.75;5051904;28;20110;-86
2022/03/23 00:18:12;;;;;;;29.70;16.40;;;;;;;5.86;61.66;102913.06;5049050;28;20048;-87
2022/03/23 00:20:40;;;;;;;28.25;15.65;;;;;;;5.82;62.46;102913.81;5051536;28;20055;-87
2022/03/23 00:23:07;;;;;;;29.67;15.18;;;;;;;5.78;62.39;102915.44;5049386;28;20412;-87
2022/03/23 00:25:33;;;;;;;31.17;15.88;;;;;;;5.79;61.56;102921.50;5047455;28;20051;-87
2022/03/23 00:27:58;;;;;;;35.17;16.83;;;;;;;5.78;61.63;102922.31;5052007;28;20452;-87
2022/03/23 00:30:23;;;;;;;33.95;17.08;;;;;;;5.76;61.91;102916.25;5051341;28;20021;-87
2022/03/23 00:32:49;;;;;;;31.80;16.30;;;;;;;5.74;61.75;102920.47;5050083;28;20033;-87
2022/03/23 00:35:15;;;;;;;37.90;18.27;;;;;;;5.73;62.05;102923.91;5050047;28;20029;-87
2022/03/23 00:37:40;;;;;;;34.92;17.02;;;;;;;5.73;61.78;102926.47;5049053;28;20024;-87
2022/03/23 00:40:06;;;;;;;28.35;15.65;;;;;;;5.67;62.55;102921.13;5049284;28;20107;-87
2022/03/23 00:42:31;;;;;;;26.25;14.77;;;;;;;5.58;62.38;102924.31;5049185;28;20020;-86
2022/03/23 00:44:58;;;;;;;32.78;15.88;;;;;;;5.51;62.92;102925.00;5052451;28;20032;-88
2022/03/23 00:47:23;;;;;;;30.17;15.80;;;;;;;5.45;62.54;102926.56;5047310;28;20033;-87
2022/03/23 00:49:49;;;;;;;31.02;15.88;;;;;;;5.41;62.96;102927.28;5051618;28;20087;-86
2022/03/23 00:52:14;;;;;;;26.70;15.45;;;;;;;5.38;62.05;102929.78;5051664;28;20021;-87
2022/03/23 00:54:39;;;;;;;28.52;15.20;;;;;;;5.34;61.53;102927.06;5051052;28;20029;-87
2022/03/23 00:57:06;;;;;;;33.90;16.40;;;;;;;5.32;62.43;102925.31;5049658;28;20107;-87
2022/03/23 00:59:32;;;;;;;33.08;16.88;;;;;;;5.31;62.97;102923.56;5050587;28;20299;-87
2022/03/23 01:01:58;;;;;;;30.77;16.45;;;;;;;5.27;63.05;102916.56;5049990;28;20043;-87
2022/03/23 01:04:24;;;;;;;32.28;17.00;;;;;;;5.19;63.45;102928.34;5062721;28;20016;-87
2022/03/23 01:06:52;;;;;;;34.08;17.08;;;;;;;5.17;63.21;102924.84;5075098;28;20236;-86
2022/03/23 01:09:22;;;;;;;30.92;16.52;;;;;;;5.19;62.94;102912.00;5059936;28;20023;-86
2022/03/23 01:11:48;;;;;;;31.13;16.35;;;;;;;5.16;63.19;102917.94;5053976;28;20119;-87
2022/03/23 01:14:14;;;;;;;28.35;16.10;;;;;;;5.10;63.84;102917.78;5050691;28;20033;-87
2022/03/23 01:16:39;;;;;;;29.85;15.50;;;;;;;5.08;63.14;102909.09;5050606;28;20025;-87
2022/03/23 01:19:04;;;;;;;32.00;16.10;;;;;;;5.05;63.30;102911.59;5047023;28;20493;-87
2022/03/23 01:21:29;;;;;;;31.50;15.93;;;;;;;4.98;63.48;102918.25;5050330;28;20027;-87
2022/03/23 01:23:55;;;;;;;32.35;16.35;;;;;;;4.97;64.25;102912.22;5050068;28;20383;-87
2022/03/23 01:26:20;;;;;;;31.63;16.00;;;;;;;4.92;65.12;102910.31;5046863;28;20105;-87
2022/03/23 01:28:45;;;;;;;31.48;15.35;;;;;;;4.86;64.26;102904.16;5051722;28;20392;-87
2022/03/23 01:31:11;;;;;;;28.73;15.20;;;;;;;4.84;64.58;102910.09;5049707;28;20039;-86
2022/03/23 01:33:36;;;;;;;29.40;14.52;;;;;;;4.82;65.13;102910.03;5048286;28;20082;-87
2022/03/23 01:36:02;;;;;;;30.02;15.15;;;;;;;4.79;65.03;102909.06;5048642;28;20108;-87
2022/03/23 01:38:28;;;;;;;31.17;15.23;;;;;;;4.78;65.31;102899.59;5047355;28;20036;-87
2022/03/23 01:40:53;;;;;;;27.83;14.55;;;;;;;4.71;64.98;102904.53;5049265;28;20017;-87
2022/03/23 01:43:18;;;;;;;29.63;15.90;;;;;;;4.72;65.71;102902.81;5047888;28;20029;-87
2022/03/23 01:45:44;;;;;;;24.95;13.77;;;;;;;4.68;65.14;102896.69;5048569;28;20373;-87
2022/03/23 01:48:09;;;;;;;25.38;13.48;;;;;;;4.65;64.78;102900.91;5049502;28;20158;-86
2022/03/23 01:50:34;;;;;;;23.08;13.23;;;;;;;4.61;64.92;102897.31;5047353;28;20029;-87
2022/03/23 01:52:59;;;;;;;28.17;14.50;;;;;;;4.58;64.94;102891.19;5046848;28;20464;-86
2022/03/23 01:55:25;;;;;;;27.13;14.52;;;;;;;4.54;65.48;102895.38;5052166;28;20369;-87
2022/03/23 01:57:52;;;;;;;26.13;14.73;;;;;;;4.51;65.60;102891.03;5049486;28;20139;-87
2022/03/23 02:00:19;;;;;;;32.95;16.58;;;;;;;4.48;65.53;102890.91;5044826;28;20036;-87
2022/03/23 02:02:44;;;;;;;27.50;14.53;;;;;;;4.46;64.72;102894.25;5047273;28;20606;-87
2022/03/23 02:05:11;;;;;;;33.05;16.23;;;;;;;4.47;65.37;102890.84;5048478;28;20119;-86
2022/03/23 02:07:37;;;;;;;33.33;15.73;;;;;;;4.45;65.94;102889.91;5049143;28;20017;-87
2022/03/23 02:10:07;;;;;;;31.73;15.50;;;;;;;4.44;65.84;102883.03;5049129;28;20518;-87
2022/03/23 02:12:32;;;;;;;30.90;15.63;;;;;;;4.42;66.22;102887.25;5043749;28;20076;-87
2022/03/23 02:15:00;;;;;;;28.77;14.80;;;;;;;4.36;66.69;102886.22;5044759;28;21676;-86
2022/03/23 02:17:26;;;;;;;37.17;16.23;;;;;;;4.38;66.36;102889.72;5044308;28;20107;-87
2022/03/23 02:19:51;;;;;;;32.20;15.60;;;;;;;4.38;66.10;102889.72;5048726;28;20112;-87
2022/03/23 02:22:16;;;;;;;33.45;16.77;;;;;;;4.34;66.53;102889.59;5046779;28;20044;-87
2022/03/23 02:24:48;;;;;;;33.33;15.40;;;;;;;4.26;67.00;102886.75;5045956;28;20175;-87
2022/03/23 02:27:14;;;;;;;31.73;14.35;;;;;;;4.19;66.62;102889.94;5046829;28;20020;-87
2022/03/23 02:29:39;;;;;;;24.43;14.00;;;;;;;4.16;65.90;102892.41;5054975;28;20083;-87
2022/03/23 02:32:05;;;;;;;28.77;15.63;;;;;;;4.14;66.60;102888.91;5050577;28;20098;-86
2022/03/23 02:34:30;;;;;;;29.43;15.37;;;;;;;4.14;66.46;102899.19;5048679;28;20021;-86
2022/03/23 02:36:57;;;;;;;30.02;15.32;;;;;;;4.13;66.55;102890.59;5050029;28;20371;-87
2022/03/23 02:39:22;;;;;;;32.10;15.32;;;;;;;4.12;66.54;102886.28;5049923;28;20027;-87
2022/03/23 02:41:47;;;;;;;28.73;15.05;;;;;;;4.10;66.52;102886.19;5049394;28;20104;-86
2022/03/23 02:44:14;;;;;;;32.25;15.15;;;;;;;4.07;66.50;102893.84;5046659;28;20021;-87
2022/03/23 02:46:40;;;;;;;28.90;14.57;;;;;;;4.04;66.11;102887.69;5051829;28;20467;-86
2022/03/23 02:49:05;;;;;;;29.33;14.90;;;;;;;4.00;66.44;102886.72;5046438;28;20017;-86
2022/03/23 02:51:31;;;;;;;29.70;15.65;;;;;;;3.97;66.85;102886.59;5048613;28;20404;-86
2022/03/23 03:02:37;;;;;;;30.77;15.90;;;;;;;3.97;65.59;102890.91;5047392;28;20396;-87
2022/03/23 03:05:04;;;;;;;29.63;14.80;;;;;;;3.94;66.91;102886.50;5053084;28;20059;-86
2022/03/23 03:08:44;;;;;;;32.33;15.77;;;;;;;3.91;66.69;102894.16;5049043;28;20488;-86
2022/03/23 03:10:15;;;;;;;34.90;16.60;;;;;;;3.95;66.53;102895.97;5067022;28;20079;-87
2022/03/23 03:12:42;;;;;;;29.65;15.70;;;;;;;3.87;66.32;102889.69;5072796;28;20009;-86
2022/03/23 03:15:10;;;;;;;33.77;16.33;;;;;;;3.83;66.98;102892.97;5069130;28;20465;-86
2022/03/23 03:17:35;;;;;;;30.00;15.60;;;;;;;3.76;66.92;102890.19;5060916;28;20067;-86
2022/03/23 03:20:00;;;;;;;30.77;15.50;;;;;;;3.76;67.29;102900.47;5055705;28;20018;-87
2022/03/23 03:22:26;;;;;;;31.93;16.23;;;;;;;3.75;67.17;102890.13;5059094;28;20476;-86
2022/03/23 03:24:51;;;;;;;28.00;15.07;;;;;;;3.72;66.95;102900.31;5053321;28;20032;-86
2022/03/23 03:27:17;;;;;;;31.63;15.63;;;;;;;3.66;67.91;102897.53;5051840;28;20025;-87
2022/03/23 03:29:42;;;;;;;31.67;14.70;;;;;;;3.63;68.40;102906.00;5051432;28;20416;-87
2022/03/23 03:32:07;;;;;;;29.27;14.47;;;;;;;3.61;68.97;102908.53;5051871;28;20029;-86
2022/03/23 03:34:33;;;;;;;35.77;16.07;;;;;;;3.63;68.83;102912.06;5052487;28;20444;-86
2022/03/23 03:36:58;;;;;;;27.33;14.68;;;;;;;3.65;68.40;102906.94;5052299;28;20103;-86
2022/03/23 03:39:23;;;;;;;26.87;14.27;;;;;;;3.66;68.08;102908.69;5049414;28;20028;-87
2022/03/23 03:41:49;;;;;;;29.90;14.83;;;;;;;3.63;68.00;102901.75;5051119;28;20476;-86
2022/03/23 03:44:14;;;;;;;31.00;14.57;;;;;;;3.61;67.92;102902.50;5050911;28;20064;-87
2022/03/23 03:46:40;;;;;;;25.37;14.03;;;;;;;3.60;67.27;102905.88;5048325;28;20036;-87
2022/03/23 03:49:06;;;;;;;24.50;13.75;;;;;;;3.57;67.29;102905.81;5052377;28;20036;-86
2022/03/23 03:51:31;;;;;;;28.00;13.73;;;;;;;3.54;66.19;102910.84;5052197;28;20041;-87
2022/03/23 03:53:56;;;;;;;27.30;14.03;;;;;;;3.48;65.81;102909.78;5051072;28;20115;-87
2022/03/23 03:56:22;;;;;;;28.10;13.57;;;;;;;3.42;66.50;102906.09;5051964;28;20025;-86
2022/03/23 03:58:48;;;;;;;28.00;14.30;;;;;;;3.38;67.03;102910.25;5051875;28;20086;-86
2022/03/23 04:01:14;;;;;;;26.97;14.83;;;;;;;3.34;67.51;102908.38;5050378;28;20029;-87
2022/03/23 04:03:39;;;;;;;27.10;14.47;;;;;;;3.33;67.87;102906.63;5053787;28;20036;-87
2022/03/23 04:06:06;;;;;;;29.93;14.97;;;;;;;3.30;67.80;102909.97;5049974;28;20028;-86
2022/03/23 04:08:32;;;;;;;27.70;14.23;;;;;;;3.26;68.06;102907.19;5047741;28;20375;-86
2022/03/23 04:10:57;;;;;;;26.37;13.90;;;;;;;3.24;67.63;102911.44;5053326;28;20025;-86
2022/03/23 04:13:22;;;;;;;25.13;14.60;;;;;;;3.23;67.58;102909.69;5050027;28;20029;-86
2022/03/23 04:15:48;;;;;;;31.67;13.30;;;;;;;3.19;67.91;102919.84;5049976;28;20033;-87
2022/03/23 04:18:13;;;;;;;27.20;13.73;;;;;;;3.18;67.79;102918.09;5051702;28;20050;-87
2022/03/23 04:20:38;;;;;;;27.27;14.00;;;;;;;3.15;67.63;102917.97;5051221;28;20047;-87
2022/03/23 04:23:03;;;;;;;32.50;15.40;;;;;;;3.14;67.62;102915.34;5051221;28;20481;-87
2022/03/23 04:25:29;;;;;;;31.70;14.27;;;;;;;3.12;67.93;102914.41;5057089;28;20132;-86
2022/03/23 04:27:56;;;;;;;32.27;15.70;;;;;;;3.09;68.18;102917.72;5048078;28;20037;-87
2022/03/23 04:30:26;;;;;;;31.20;15.60;;;;;;;3.09;67.85;102922.88;5051127;28;20033;-87
2022/03/23 04:32:52;;;;;;;31.43;15.97;;;;;;;3.04;67.68;102919.25;5050953;28;20047;-87
2022/03/23 04:35:18;;;;;;;32.93;16.70;;;;;;;3.02;68.15;102926.88;5053174;28;20055;-86
2022/03/23 04:37:44;;;;;;;29.47;15.60;;;;;;;2.97;68.45;102922.38;5053916;28;20029;-87
2022/03/23 04:40:11;;;;;;;33.67;14.20;;;;;;;2.96;67.38;102928.34;5049523;28;20396;-86
2022/03/23 04:42:37;;;;;;;26.77;14.67;;;;;;;2.90;66.87;102917.84;5049901;28;20388;-87
2022/03/23 04:45:04;;;;;;;26.83;13.87;;;;;;;2.85;67.20;102921.09;5047487;28;20026;-87
2022/03/23 04:47:29;;;;;;;24.80;13.40;;;;;;;2.83;67.71;102919.25;5050831;28;20032;-86
2022/03/23 04:49:55;;;;;;;26.37;13.70;;;;;;;2.79;67.45;102918.28;5052074;28;20043;-87
2022/03/23 04:52:20;;;;;;;28.40;13.83;;;;;;;2.76;67.32;102920.72;5051114;28;20024;-86
2022/03/23 04:54:46;;;;;;;26.53;13.50;;;;;;;2.71;67.21;102929.94;5050027;28;20468;-86
2022/03/23 04:57:11;;;;;;;27.70;14.47;;;;;;;2.67;67.51;102928.94;5051792;28;20055;-86
2022/03/23 04:59:36;;;;;;;29.07;14.07;;;;;;;2.67;67.70;102925.50;5049172;28;20025;-85
2022/03/23 05:02:02;;;;;;;29.23;13.90;;;;;;;2.64;68.44;102927.94;5051395;28;20031;-86
2022/03/23 05:04:27;;;;;;;30.40;14.60;;;;;;;2.63;69.18;102927.06;5051065;28;20476;-86
2022/03/23 05:06:53;;;;;;;28.03;14.40;;;;;;;2.60;68.93;102931.19;5048190;28;20032;-86
2022/03/23 05:09:18;;;;;;;26.87;14.23;;;;;;;2.60;68.90;102931.19;5051900;28;20582;-86
2022/03/23 05:11:43;;;;;;;28.13;13.47;;;;;;;2.58;67.66;102938.84;5063636;28;20480;-86
2022/03/23 05:14:08;;;;;;;26.67;14.67;;;;;;;2.54;68.47;102927.56;5050655;28;20036;-86
2022/03/23 05:16:34;;;;;;;27.53;14.20;;;;;;;2.53;69.22;102930.94;5051882;28;20049;-86
2022/03/23 05:18:59;;;;;;;26.97;14.17;;;;;;;2.54;69.54;102934.38;5050195;28;20045;-86
2022/03/23 05:21:24;;;;;;;27.47;14.20;;;;;;;2.55;69.46;102929.31;5050328;28;20033;-86
2022/03/23 05:23:50;;;;;;;28.97;14.77;;;;;;;2.57;69.26;102925.09;5047979;28;20032;-86
2022/03/23 05:26:15;;;;;;;24.50;12.60;;;;;;;2.55;68.84;102931.00;5047961;28;20043;-87
2022/03/23 05:28:41;;;;;;;28.07;13.37;;;;;;;2.54;68.93;102929.25;5049234;28;20430;-86
2022/03/23 05:31:06;;;;;;;25.70;13.27;;;;;;;2.53;68.65;102933.50;5050156;28;20029;-86
2022/03/23 05:33:32;;;;;;;26.07;13.53;;;;;;;2.52;68.27;102936.91;5050269;28;20028;-86
2022/03/23 05:35:57;;;;;;;25.00;13.63;;;;;;;2.51;68.47;102930.00;5049159;28;20119;-87
2022/03/23 05:38:22;;;;;;;24.40;12.73;;;;;;;2.49;68.24;102931.63;5046841;28;20365;-86
2022/03/23 05:40:47;;;;;;;25.50;12.60;;;;;;;2.49;68.46;102935.88;5048901;28;20029;-86
2022/03/23 05:43:13;;;;;;;26.10;12.87;;;;;;;2.49;68.86;102939.34;5048422;28;20033;-86
2022/03/23 05:45:38;;;;;;;22.70;12.43;;;;;;;2.51;68.90;102948.00;5049628;28;20052;-86
2022/03/23 05:48:04;;;;;;;26.27;13.97;;;;;;;2.51;69.23;102948.00;5048277;28;20587;-86
2022/03/23 05:50:29;;;;;;;28.30;14.60;;;;;;;2.50;69.90;102945.34;5047014;28;20033;-86
2022/03/23 05:52:54;;;;;;;28.53;14.03;;;;;;;2.55;70.22;102952.44;5045403;28;20472;-87
2022/03/23 05:55:20;;;;;;;28.17;14.57;;;;;;;2.60;69.81;102956.88;5047316;28;20031;-86
2022/03/23 05:57:45;;;;;;;27.40;14.37;;;;;;;2.57;69.21;102955.94;5047101;28;20036;-86
2022/03/23 06:00:11;;;;;;;28.83;15.37;;;;;;;2.56;69.99;102956.75;5042976;28;20116;-87
2022/03/23 06:02:36;;;;;;;29.27;14.33;;;;;;;2.57;70.25;102955.94;5050392;28;20026;-86
2022/03/23 06:05:02;;;;;;;32.30;15.33;;;;;;;2.61;70.54;102958.63;5047409;28;20036;-86
2022/03/23 06:07:28;;;;;;;30.17;15.57;;;;;;;2.68;70.17;102966.66;5044663;28;20222;-86
2022/03/23 06:09:53;;;;;;;27.53;14.77;;;;;;;2.72;70.25;102967.69;5051252;28;20041;-87
2022/03/23 06:12:19;;;;;;;28.37;15.73;;;;;;;2.77;69.68;102966.16;5059230;28;20021;-85
2022/03/23 06:14:44;;;;;;;32.13;16.97;;;;;;;2.82;69.45;102971.50;5050212;28;20445;-86
2022/03/23 06:17:10;;;;;;;31.47;15.57;;;;;;;2.85;69.24;102958.75;5047965;28;20404;-86
2022/03/23 06:19:36;;;;;;;30.43;16.60;;;;;;;2.87;69.74;102963.16;5048143;28;20033;-86
2022/03/23 06:22:02;;;;;;;34.07;15.20;;;;;;;2.87;69.43;102968.31;5047330;28;20033;-86
2022/03/23 06:24:27;;;;;;;29.37;14.93;;;;;;;2.86;69.59;102966.56;5046764;28;20104;-88
2022/03/23 06:26:53;;;;;;;28.60;14.63;;;;;;;2.88;69.64;102964.94;5047195;28;20115;-86
2022/03/23 06:29:18;;;;;;;27.07;14.03;;;;;;;2.92;69.67;102980.47;5045629;28;20101;-86
2022/03/23 06:31:43;;;;;;;28.77;14.67;;;;;;;2.98;69.01;102980.72;5046992;28;20033;-85
2022/03/23 06:34:09;;;;;;;29.20;14.80;;;;;;;3.01;69.35;102975.69;5048905;28;20029;-85
2022/03/23 06:36:35;;;;;;;30.43;16.33;;;;;;;3.04;69.95;102975.84;5053661;28;20032;-85
2022/03/23 06:39:00;;;;;;;34.00;16.60;;;;;;;3.08;69.65;102977.69;5049260;28;20361;-86
2022/03/23 06:41:26;;;;;;;32.47;17.17;;;;;;;3.11;69.88;102982.09;5042610;28;20112;-86
2022/03/23 06:43:52;;;;;;;33.37;17.53;;;;;;;3.15;70.05;102974.56;5047665;28;20167;-86
2022/03/23 06:46:17;;;;;;;35.20;17.90;;;;;;;3.21;69.78;102976.47;5046415;28;20075;-87
2022/03/23 06:48:42;;;;;;;36.13;18.10;;;;;;;3.27;70.03;102981.00;5047775;28;20476;-86
2022/03/23 06:51:07;;;;;;;40.10;19.03;;;;;;;3.32;70.54;102982.06;5057360;28;20447;-87
2022/03/23 06:53:33;;;;;;;37.27;18.17;;;;;;;3.37;70.20;102985.69;5051224;28;20021;-87
2022/03/23 06:55:58;;;;;;;38.70;18.50;;;;;;;3.42;70.34;102991.00;5052273;28;20520;-87
2022/03/23 06:58:23;;;;;;;34.77;17.50;;;;;;;3.47;70.93;102986.94;5049428;28;20029;-87
2022/03/23 07:00:49;;;;;;;34.50;17.50;;;;;;;3.55;70.04;103000.94;5050492;28;20021;-88
2022/03/23 07:03:14;;;;;;;36.00;17.37;;;;;;;3.62;71.63;102999.50;5052912;28;20032;-87
2022/03/23 07:05:39;;;;;;;29.93;16.60;;;;;;;3.69;70.95;102998.91;5050615;28;20029;-88
2022/03/23 07:10:49;;;;;;;31.43;16.97;;;;;;;3.84;70.51;103000.31;5053268;28;20036;-87
2022/03/23 07:13:15;;;;;;;30.97;16.93;;;;;;;3.92;70.87;102997.19;5051182;28;20384;-87
2022/03/23 07:15:42;;;;;;;32.75;18.05;;;;;;;4.02;70.30;103008.72;5048615;28;20158;-87
2022/03/23 07:18:08;;;;;;;33.13;18.43;;;;;;;4.10;69.09;103002.13;5048412;28;20060;-87
2022/03/23 07:20:33;;;;;;;36.90;18.85;;;;;;;4.21;68.68;103009.38;5051139;28;20032;-87
2022/03/23 07:22:59;;;;;;;37.38;19.65;;;;;;;4.31;68.55;103006.28;5050362;28;20055;-87
2022/03/23 07:25:25;;;;;;;38.30;18.90;;;;;;;4.41;67.09;103004.91;5051390;28;20130;-88
2022/03/23 07:27:51;;;;;;;33.83;19.13;;;;;;;4.51;67.55;103003.53;5049972;28;20025;-87
2022/03/23 07:30:16;;;;;;;39.88;19.95;;;;;;;4.61;67.41;103009.91;5051340;28;20379;-87
2022/03/23 07:32:41;;;;;;;34.47;20.17;;;;;;;4.70;68.08;103005.94;5052317;28;20079;-88
2022/03/23 07:35:07;;;;;;;37.80;20.17;;;;;;;4.80;67.46;103007.13;5050418;28;20396;-87
2022/03/23 07:37:33;;;;;;;36.42;18.95;;;;;;;4.89;66.63;103005.66;5050653;28;20049;-88
2022/03/23 07:39:59;;;;;;;35.90;18.75;;;;;;;4.99;65.99;103000.84;5044359;28;20053;-87
2022/03/23 07:42:24;;;;;;;34.15;18.95;;;;;;;5.08;66.13;103001.97;5044185;28;20463;-90
2022/03/23 07:44:50;;;;;;;34.78;19.45;;;;;;;5.18;66.14;103014.34;5042623;28;20108;-90
2022/03/23 07:47:15;;;;;;;36.63;19.73;;;;;;;5.27;67.04;103006.91;5043789;28;20053;-91
2022/03/23 07:49:41;;;;;;;34.58;19.55;;;;;;;5.38;67.23;103019.25;5047224;28;20021;-89
2022/03/23 07:52:08;;;;;;;34.33;19.48;;;;;;;5.43;65.17;103015.97;5044201;28;20052;-89
2022/03/23 07:54:34;;;;;;;35.38;19.10;;;;;;;5.53;65.24;103016.28;5048751;28;20494;-89
2022/03/23 07:56:59;;;;;;;37.75;20.50;;;;;;;5.62;65.36;103017.44;5055834;28;20107;-88
2022/03/23 07:59:24;;;;;;;36.40;20.52;;;;;;;5.69;64.77;103018.50;5054392;28;20031;-89
2022/03/23 08:01:50;;;;;;;37.67;20.50;;;;;;;5.77;64.61;103021.31;5051109;28;20036;-89
2022/03/23 08:04:15;;;;;;;34.78;20.08;;;;;;;5.86;64.90;103025.88;5048873;28;20115;-89
2022/03/23 08:06:40;;;;;;;35.85;20.35;;;;;;;5.95;64.82;103030.44;5054151;28;20021;-89
2022/03/23 08:09:06;;;;;;;36.70;20.23;;;;;;;6.02;64.18;103027.19;5068983;28;20064;-89
2022/03/23 08:11:32;;;;;;;35.97;20.95;;;;;;;6.10;63.44;103024.84;5082815;28;20020;-90
2022/03/23 08:13:57;;;;;;;42.13;21.25;;;;;;;6.19;63.46;103028.56;5060978;28;20029;-89
2022/03/23 08:16:24;;;;;;;37.08;21.83;;;;;;;6.27;62.81;103023.59;5058665;28;20078;-89
2022/03/23 08:18:49;;;;;;;37.97;21.60;;;;;;;6.36;63.26;103020.38;5065794;28;20235;-88
2022/03/23 08:21:17;;;;;;;37.25;21.35;;;;;;;6.47;64.26;103021.56;5061694;28;20622;-89
2022/03/23 08:23:43;;;;;;;38.97;21.30;;;;;;;6.59;64.04;103026.16;5050030;28;20112;-88
2022/03/23 08:26:10;;;;;;;41.03;21.50;;;;;;;6.68;64.19;103025.53;5051724;28;20458;-90
2022/03/23 08:28:36;;;;;;;36.65;21.52;;;;;;;6.77;63.66;103020.59;5053635;28;20027;-88
2022/03/23 08:31:01;;;;;;;35.50;20.63;;;;;;;6.84;63.34;103019.91;5050682;28;20100;-87
2022/03/23 08:33:29;;;;;;;40.92;21.23;;;;;;;6.93;63.34;103021.00;5051776;28;20029;-87
2022/03/23 08:35:54;;;;;;;35.45;21.08;;;;;;;7.01;62.94;103023.75;5068966;28;20025;-89
2022/03/23 08:38:20;;;;;;;36.47;21.77;;;;;;;7.09;63.11;103023.13;5054465;28;20055;-89
2022/03/23 08:40:45;;;;;;;41.28;21.90;;;;;;;7.18;62.39;103026.75;5052423;28;20107;-90
2022/03/23 08:43:11;;;;;;;39.08;21.75;;;;;;;7.25;61.88;103019.19;5050618;28;20048;-89
2022/03/23 08:45:38;;;;;;;35.53;20.30;;;;;;;7.35;62.03;103020.25;5062346;28;20115;-88
2022/03/23 08:48:04;;;;;;;38.20;21.83;;;;;;;7.42;62.06;103016.97;5060445;28;20094;-89
2022/03/23 08:50:29;;;;;;;39.03;22.70;;;;;;;7.53;62.78;103017.22;5067941;28;20024;-88
2022/03/23 08:52:55;;;;;;;40.63;22.40;;;;;;;7.63;61.91;103009.63;5057576;28;20020;-90
2022/03/23 08:55:23;;;;;;;34.67;21.55;;;;;;;7.74;62.04;103015.94;5057788;28;20032;-89
2022/03/23 08:57:49;;;;;;;38.85;21.77;;;;;;;7.84;62.99;103019.59;5055932;28;20023;-88
2022/03/23 09:02:49;;;;;;;36.97;22.55;;;;;;;8.01;61.47;103023.41;5079270;22;20053;-89
2022/03/23 09:05:15;;;;;;;47.05;23.80;;;;;;;8.13;60.50;103029.69;5025237;28;20029;-88
2022/03/23 09:07:42;;;;;;;36.83;22.63;;;;;;;8.23;61.60;103023.81;5013671;28;20038;-89
2022/03/23 09:10:08;;;;;;;45.65;26.98;;;;;;;8.34;59.68;103029.22;5009123;28;20389;-88
2022/03/23 09:12:34;;;;;;;53.50;34.10;;;;;;;8.45;59.22;103024.22;5010306;28;20539;-89
2022/03/23 09:14:59;;;;;;;58.70;36.08;;;;;;;8.54;59.46;103020.97;5010467;28;20029;-87
2022/03/23 09:17:24;;;;;;;49.70;30.58;;;;;;;8.63;58.96;103027.19;5010952;28;20061;-88
2022/03/23 09:19:50;;;;;;;43.53;26.45;;;;;;;8.74;58.47;103019.59;4991012;28;20044;-88
2022/03/23 09:22:15;;;;;;;43.60;25.92;;;;;;;8.84;58.30;103020.63;5016502;28;20072;-88
2022/03/23 09:24:40;;;;;;;44.90;25.23;;;;;;;8.96;58.47;103026.00;5012407;28;20113;-89
2022/03/23 09:27:05;;;;;;;39.20;23.23;;;;;;;9.06;57.35;103018.34;5013362;28;20091;-88
2022/03/23 09:29:31;;;;;;;37.42;22.48;;;;;;;9.20;57.35;103015.97;5011328;28;20034;-88
2022/03/23 09:31:57;;;;;;;34.35;20.17;;;;;;;9.32;56.11;103020.50;5012023;28;20030;-87
2022/03/23 09:34:22;;;;;;;37.17;20.98;;;;;;;9.42;56.38;103017.16;5011180;28;20096;-88
2022/03/23 09:39:31;;;;;;;35.17;21.00;;;;;;;9.67;55.43;103014.91;5017498;28;20103;-88
2022/03/23 09:41:58;;;;;;;32.53;19.55;;;;;;;9.76;55.02;103012.41;5011208;28;20493;-87
2022/03/23 09:44:25;;;;;;;32.17;19.58;;;;;;;9.86;54.25;103014.31;5014618;28;20036;-88
2022/03/23 09:46:51;;;;;;;31.23;18.60;;;;;;;9.97;51.13;103005.75;5007131;28;20435;-88
2022/03/23 09:49:16;;;;;;;34.80;19.83;;;;;;;10.08;51.29;103014.53;5008869;28;20644;-88
2022/03/23 09:51:42;;;;;;;30.75;18.98;;;;;;;10.20;54.01;103010.34;5005550;28;20038;-88
2022/03/23 09:54:07;;;;;;;32.78;19.42;;;;;;;10.30;52.48;103006.97;5008366;28;20040;-88
2022/03/23 09:56:33;;;;;;;35.88;19.48;;;;;;;10.40;52.77;103015.78;5010394;28;20104;-88
2022/03/23 09:59:00;;;;;;;34.90;19.48;;;;;;;10.48;51.96;103004.59;5020671;28;20480;-88
2022/03/23 10:01:28;;;;;;;34.05;19.10;;;;;;;10.57;51.31;103009.00;5002235;28;20046;-88
2022/03/23 10:04:07;;;;;;;31.48;18.38;;;;;;;10.68;52.49;103016.91;5012116;28;20499;-87
2022/03/23 10:07:03;;;;;;;33.35;18.58;;;;;;;10.75;53.50;103018.72;4994496;28;20030;-88
2022/03/23 10:10:06;;;;;;;34.08;18.67;;;;;;;10.84;52.46;103011.84;5018948;28;20044;-88
2022/03/23 10:13:09;;;;;;;36.65;20.58;;;;;;;10.96;51.94;103011.06;5011161;28;20045;-88
2022/03/23 10:15:58;;;;;;;36.45;18.98;;;;;;;11.05;49.97;103017.22;5012106;28;20496;-88
2022/03/23 10:18:49;;;;;;;31.05;18.88;;;;;;;11.16;49.86;103019.91;5014485;28;20065;-88
2022/03/23 10:21:14;;;;;;;34.50;19.58;;;;;;;11.26;48.51;103013.03;5025595;28;20029;-88
2022/03/23 10:24:10;;;;;;;33.17;19.10;;;;;;;11.36;49.82;103014.81;5013094;28;20036;-88
2022/03/23 10:26:37;;;;;;;36.03;19.40;;;;;;;11.45;48.30;103015.72;4994517;28;20045;-88
2022/03/23 10:29:03;;;;;;;35.88;19.15;;;;;;;11.54;48.14;103015.78;5027219;28;20111;-89
2022/03/23 10:31:28;;;;;;;33.03;20.05;;;;;;;11.68;48.13;103008.03;5031025;28;20025;-88
2022/03/23 10:33:57;;;;;;;33.22;19.23;;;;;;;11.78;48.17;103014.16;5022963;28;20032;-88
2022/03/23 10:36:27;;;;;;;31.40;18.88;;;;;;;11.84;47.89;103003.75;5013654;28;20025;-88
2022/03/23 10:38:59;;;;;;;30.77;18.77;;;;;;;11.94;47.73;103009.88;5027523;28;20115;-88
2022/03/23 10:41:26;;;;;;;33.78;19.20;;;;;;;12.05;44.24;103002.97;4998111;28;20032;-88
2022/03/23 10:43:51;;;;;;;29.63;17.45;;;;;;;12.13;43.64;103003.88;5013638;28;20030;-88
2022/03/23 10:46:17;;;;;;;31.77;18.02;;;;;;;12.23;43.33;102996.94;5013771;28;20021;-88
2022/03/23 10:49:01;;;;;;;28.63;18.02;;;;;;;12.34;45.18;102996.06;5006170;28;20029;-88
2022/03/23 10:51:32;;;;;;;29.67;17.00;;;;;;;12.45;43.98;102996.97;5013619;28;20036;-88
2022/03/23 10:53:58;;;;;;;30.95;17.52;;;;;;;12.54;43.25;102996.97;5012953;28;20121;-88
2022/03/23 10:56:37;;;;;;;29.65;17.48;;;;;;;12.65;46.51;102991.75;4994072;28;20600;-88
2022/03/23 10:59:23;;;;;;;30.85;18.58;;;;;;;12.72;45.56;102988.25;5020177;28;20597;-88
2022/03/23 11:01:55;;;;;;;27.35;17.45;;;;;;;12.78;45.41;102990.03;4994118;28;20137;-88
2022/03/23 11:04:21;;;;;;;27.88;16.98;;;;;;;12.89;43.42;102988.28;4994447;28;20021;-88
2022/03/23 11:06:46;;;;;;;27.70;17.88;;;;;;;13.04;43.42;102983.88;5012252;28;20029;-89
2022/03/23 11:17:06;;;;;;;28.13;17.17;;;;;;;13.48;38.73;102988.19;5014572;28;20037;-89
2022/03/23 11:19:31;;;;;;;30.05;18.30;;;;;;;13.60;39.14;102982.00;5010580;28;20113;-90
2022/03/23 11:22:13;;;;;;;29.55;17.63;;;;;;;13.72;41.35;102981.09;5016329;28;20037;-88
2022/03/23 11:24:41;;;;;;;25.45;16.88;;;;;;;13.84;42.00;102981.91;4995121;28;20444;-87
2022/03/23 11:27:11;;;;;;;29.65;18.30;;;;;;;13.92;39.80;102981.00;5019456;28;20053;-87
2022/03/23 11:29:39;;;;;;;29.15;17.92;;;;;;;14.05;42.21;102973.94;5026734;28;20057;-87
2022/03/23 11:32:11;;;;;;;28.95;16.98;;;;;;;14.19;37.89;102978.22;5008054;28;20452;-87
2022/03/23 11:34:38;;;;;;;31.77;18.45;;;;;;;14.29;37.40;102971.19;5010130;28;20026;-86
2022/03/23 11:37:05;;;;;;;30.80;18.15;;;;;;;14.37;37.83;102965.00;5011157;28;20036;-87
2022/03/23 11:39:31;;;;;;;30.85;18.35;;;;;;;14.47;38.26;102967.56;5013931;28;20064;-87